Time;durP1;ratioP1;P1;durP2;ratioP2;P2;SDS_P1;SDS_P2;PMS_P1;PMS_P2;Temp;Humidity;BMP_temperature;BMP_pressure;BME280_temperature;BME280_humidity;BME280_pressure;Samples;Min_cycle;Max_cycle;Signal;HPM_P1;HPM_P2
2023/06/16 00:02:01;;;;;;;1.98;1.60;;;24.40;66.00;;;;;;6129053;23;20044;-81
2023/06/16 00:04:27;;;;;;;2.97;1.95;;;24.40;65.70;;;;;;6155310;23;20055;-81
2023/06/16 00:06:53;;;;;;;2.92;1.90;;;24.40;65.70;;;;;;6154636;23;20341;-81
2023/06/16 00:09:22;;;;;;;2.65;1.83;;;24.40;65.80;;;;;;6128619;23;20021;-81
2023/06/16 00:11:48;;;;;;;2.63;2.13;;;24.40;65.80;;;;;;6155033;23;20085;-81
2023/06/16 00:14:13;;;;;;;2.47;1.70;;;24.30;65.70;;;;;;6155357;23;20357;-81
2023/06/16 00:16:39;;;;;;;4.78;1.85;;;24.20;66.10;;;;;;6155053;23;20520;-81
2023/06/16 00:19:05;;;;;;;2.40;1.75;;;24.10;66.20;;;;;;6129538;23;20009;-81
2023/06/16 00:21:37;;;;;;;2.55;1.92;;;24.10;66.30;;;;;;6155003;23;20442;-82
2023/06/16 00:24:07;;;;;;;4.18;1.60;;;24.00;66.60;;;;;;6155452;23;19997;-81
2023/06/16 00:26:33;;;;;;;1.40;1.30;;;24.00;66.70;;;;;;6154901;23;19998;-82
2023/06/16 00:28:59;;;;;;;2.50;1.75;;;24.00;66.80;;;;;;6154963;23;20028;-82
2023/06/16 00:31:31;;;;;;;2.00;1.67;;;24.00;66.80;;;;;;6129297;23;20029;-81
2023/06/16 00:33:57;;;;;;;2.10;1.80;;;24.00;67.20;;;;;;6154976;23;20495;-82
2023/06/16 00:36:23;;;;;;;2.05;1.73;;;23.90;67.00;;;;;;6154590;23;20001;-82
2023/06/16 00:38:48;;;;;;;3.28;2.08;;;23.90;67.10;;;;;;6155035;23;20381;-82
2023/06/16 00:41:14;;;;;;;2.50;2.10;;;23.90;67.30;;;;;;6155085;23;20017;-82
2023/06/16 00:43:40;;;;;;;2.50;1.88;;;23.80;67.90;;;;;;6154858;23;20009;-81
2023/06/16 00:46:08;;;;;;;3.47;2.08;;;23.80;67.90;;;;;;6154410;23;20002;-82
2023/06/16 00:48:33;;;;;;;4.47;2.45;;;23.80;68.40;;;;;;6155107;23;20002;-82
2023/06/16 00:50:59;;;;;;;2.95;2.40;;;23.80;68.50;;;;;;6128727;23;20013;-82
2023/06/16 00:53:25;;;;;;;3.35;2.00;;;23.80;68.40;;;;;;6155493;23;20009;-82
2023/06/16 00:55:51;;;;;;;2.92;2.13;;;23.80;68.00;;;;;;6155010;23;20483;-82
2023/06/16 00:58:18;;;;;;;3.90;2.38;;;23.80;68.00;;;;;;6154122;23;20048;-82
2023/06/16 01:00:46;;;;;;;3.55;2.00;;;23.80;67.90;;;;;;6154998;23;20009;-82
2023/06/16 01:03:13;;;;;;;2.85;2.28;;;23.80;68.00;;;;;;6154808;23;20068;-82
2023/06/16 01:05:40;;;;;;;2.75;2.08;;;23.90;67.90;;;;;;6155078;23;20004;-82
2023/06/16 01:08:37;;;;;;;2.00;1.70;;;23.90;67.50;;;;;;6154773;23;20021;-82
2023/06/16 01:11:29;;;;;;;5.10;2.13;;;23.90;67.40;;;;;;6154664;23;20005;-83
2023/06/16 01:14:07;;;;;;;2.80;1.98;;;23.80;67.40;;;;;;6154172;23;20016;-82
2023/06/16 01:16:35;;;;;;;4.50;1.55;;;23.80;67.40;;;;;;6153793;23;20009;-83
2023/06/16 01:19:08;;;;;;;3.13;2.08;;;23.80;67.40;;;;;;6128496;23;20052;-84
2023/06/16 01:21:48;;;;;;;2.30;1.85;;;23.80;67.40;;;;;;6155093;23;20048;-83
2023/06/16 01:24:23;;;;;;;3.20;1.85;;;23.80;67.70;;;;;;6128848;23;20109;-83
2023/06/16 01:26:52;;;;;;;2.03;1.80;;;23.80;67.50;;;;;;6127573;23;20040;-82
2023/06/16 01:29:21;;;;;;;3.40;2.10;;;23.80;67.40;;;;;;6154920;23;20040;-82
2023/06/16 01:31:50;;;;;;;2.50;1.80;;;23.80;67.50;;;;;;6154835;23;20053;-83
2023/06/16 01:34:18;;;;;;;2.63;1.90;;;23.80;67.40;;;;;;6128701;23;20006;-82
2023/06/16 01:36:44;;;;;;;2.70;2.20;;;23.70;67.50;;;;;;6154800;23;20359;-82
2023/06/16 01:39:12;;;;;;;4.85;1.98;;;23.60;67.50;;;;;;6154443;23;20088;-83
2023/06/16 01:41:38;;;;;;;2.08;1.77;;;23.60;67.70;;;;;;6154603;23;20416;-82
2023/06/16 01:44:05;;;;;;;2.53;2.05;;;23.50;67.60;;;;;;6154620;23;20072;-82
2023/06/16 01:46:32;;;;;;;2.92;2.20;;;23.40;67.80;;;;;;6154948;23;19997;-82
2023/06/16 01:48:58;;;;;;;3.17;1.90;;;23.40;68.00;;;;;;6155259;23;20025;-82
2023/06/16 01:51:24;;;;;;;1.73;1.45;;;23.30;67.90;;;;;;6154667;23;20384;-82
2023/06/16 01:53:50;;;;;;;6.28;2.00;;;23.30;68.00;;;;;;6154894;23;20002;-82
2023/06/16 01:56:16;;;;;;;3.92;1.70;;;23.30;68.10;;;;;;6154975;23;20002;-82
2023/06/16 01:58:42;;;;;;;2.95;1.77;;;23.30;68.30;;;;;;6153683;23;20251;-82
2023/06/16 02:01:15;;;;;;;4.20;2.15;;;23.30;68.20;;;;;;6155077;23;20072;-82
2023/06/16 02:03:46;;;;;;;2.78;1.73;;;23.30;68.40;;;;;;6156600;23;20002;-82
2023/06/16 02:06:21;;;;;;;1.98;1.77;;;23.30;68.50;;;;;;6157001;23;20005;-82
2023/06/16 02:08:50;;;;;;;3.33;2.55;;;23.30;68.50;;;;;;6156680;23;20464;-82
2023/06/16 02:11:16;;;;;;;4.70;2.28;;;23.30;69.30;;;;;;6156847;23;20060;-82
2023/06/16 02:13:43;;;;;;;3.60;2.67;;;23.20;69.00;;;;;;6156915;23;20001;-82
2023/06/16 02:16:09;;;;;;;3.08;2.10;;;23.20;69.80;;;;;;6156728;23;20005;-82
2023/06/16 02:18:35;;;;;;;2.90;2.20;;;23.20;70.00;;;;;;6130259;23;20081;-81
2023/06/16 02:21:01;;;;;;;2.67;2.28;;;23.20;69.80;;;;;;6155485;23;20044;-81
2023/06/16 02:23:26;;;;;;;3.53;2.17;;;23.20;69.80;;;;;;6155834;23;20001;-81
2023/06/16 02:25:52;;;;;;;2.58;1.98;;;23.20;69.80;;;;;;6156346;23;20002;-81
2023/06/16 02:28:18;;;;;;;1.95;1.77;;;23.30;69.90;;;;;;6156160;23;20071;-83
2023/06/16 02:30:44;;;;;;;3.03;2.00;;;23.20;70.10;;;;;;6156729;23;20005;-83
2023/06/16 02:33:12;;;;;;;2.88;1.95;;;23.20;70.20;;;;;;6156224;23;20005;-83
2023/06/16 02:35:38;;;;;;;3.75;2.33;;;23.20;70.30;;;;;;6156442;23;20011;-83
2023/06/16 02:38:04;;;;;;;3.15;2.22;;;23.20;70.60;;;;;;6156645;23;20033;-83
2023/06/16 02:40:30;;;;;;;3.78;2.22;;;23.20;70.60;;;;;;6156201;23;20009;-83
2023/06/16 02:42:56;;;;;;;2.15;1.63;;;23.20;70.80;;;;;;6156740;23;20052;-83
2023/06/16 02:45:27;;;;;;;2.28;1.77;;;23.20;71.00;;;;;;6130158;23;20001;-83
2023/06/16 02:47:53;;;;;;;2.38;2.10;;;23.20;70.90;;;;;;6156235;23;20027;-82
2023/06/16 02:50:20;;;;;;;3.20;1.73;;;23.10;70.90;;;;;;6130189;23;20448;-82
2023/06/16 02:52:48;;;;;;;3.70;2.30;;;23.20;71.00;;;;;;6130779;23;20020;-82
2023/06/16 02:55:15;;;;;;;4.13;2.13;;;23.20;71.30;;;;;;6156474;23;20096;-82
2023/06/16 02:57:41;;;;;;;3.00;2.17;;;23.20;71.40;;;;;;6155856;23;20463;-82
2023/06/16 03:00:11;;;;;;;2.42;2.10;;;23.10;71.20;;;;;;6156047;23;20012;-85
2023/06/16 03:02:47;;;;;;;3.25;2.13;;;23.20;71.50;;;;;;6156592;23;20037;-85
2023/06/16 03:05:18;;;;;;;3.55;2.20;;;23.20;71.70;;;;;;6156081;23;20052;-83
2023/06/16 03:07:44;;;;;;;3.30;1.80;;;23.10;72.00;;;;;;6155763;23;20476;-82
2023/06/16 03:10:11;;;;;;;2.85;2.10;;;23.10;72.00;;;;;;6155812;23;20010;-81
2023/06/16 03:12:36;;;;;;;3.15;2.25;;;23.10;72.10;;;;;;6156344;23;20040;-82
2023/06/16 03:15:02;;;;;;;3.13;2.10;;;23.10;72.50;;;;;;6155785;23;20413;-83
2023/06/16 03:17:28;;;;;;;3.13;2.20;;;23.00;72.40;;;;;;6156336;23;20006;-82
2023/06/16 03:19:54;;;;;;;3.33;2.22;;;23.00;72.80;;;;;;6131812;23;20329;-81
2023/06/16 03:22:20;;;;;;;3.40;2.13;;;23.00;73.10;;;;;;6181431;23;19997;-82
2023/06/16 03:24:46;;;;;;;3.15;2.38;;;23.00;73.20;;;;;;6159193;23;20005;-81
2023/06/16 03:27:12;;;;;;;5.20;2.30;;;22.90;73.90;;;;;;6185792;23;20005;-81
2023/06/16 03:29:38;;;;;;;2.17;1.90;;;22.90;73.60;;;;;;6185578;23;20001;-81
2023/06/16 03:32:07;;;;;;;3.63;2.53;;;22.90;73.70;;;;;;6185504;23;20016;-81
2023/06/16 03:34:33;;;;;;;3.45;2.25;;;22.90;73.90;;;;;;6184277;23;20045;-81
2023/06/16 03:36:59;;;;;;;3.00;2.40;;;22.90;73.90;;;;;;6185286;23;20029;-81
2023/06/16 03:39:25;;;;;;;4.50;2.67;;;22.90;74.00;;;;;;6184958;23;20009;-81
2023/06/16 03:41:52;;;;;;;2.85;2.58;;;22.80;74.10;;;;;;6185505;23;20001;-81
2023/06/16 03:44:18;;;;;;;3.20;2.63;;;22.80;74.20;;;;;;6184466;23;20009;-81
2023/06/16 03:46:43;;;;;;;6.22;2.53;;;22.80;74.10;;;;;;6183991;23;20013;-81
2023/06/16 03:49:15;;;;;;;4.05;2.95;;;22.80;74.20;;;;;;6184753;23;20001;-83
2023/06/16 03:51:41;;;;;;;3.42;2.55;;;22.70;74.10;;;;;;6185112;23;20016;-81
2023/06/16 03:54:07;;;;;;;2.42;2.22;;;22.80;74.00;;;;;;6185741;23;20033;-81
2023/06/16 03:56:32;;;;;;;7.38;3.17;;;22.80;73.80;;;;;;6185337;23;20008;-81
2023/06/16 03:58:58;;;;;;;7.05;2.97;;;22.80;73.90;;;;;;6185252;23;20331;-81
2023/06/16 04:01:24;;;;;;;4.28;2.50;;;22.80;73.80;;;;;;6185831;23;20067;-81
2023/06/16 04:03:50;;;;;;;4.00;2.60;;;22.80;73.70;;;;;;6185385;23;20425;-81
2023/06/16 04:06:16;;;;;;;2.63;2.38;;;22.80;73.70;;;;;;6185834;23;20057;-81
2023/06/16 04:08:44;;;;;;;5.03;2.88;;;22.80;73.80;;;;;;6185209;23;20076;-81
2023/06/16 04:11:10;;;;;;;3.60;2.42;;;22.80;73.80;;;;;;6185452;23;20025;-81
2023/06/16 04:13:36;;;;;;;5.65;2.88;;;22.80;74.00;;;;;;6185496;23;20005;-81
2023/06/16 04:16:01;;;;;;;3.42;2.67;;;22.90;74.20;;;;;;6185534;23;20013;-81
2023/06/16 04:18:27;;;;;;;3.53;2.85;;;22.90;74.40;;;;;;6184129;23;20100;-82
2023/06/16 04:20:53;;;;;;;4.00;2.97;;;22.90;74.10;;;;;;6184804;23;20011;-82
2023/06/16 04:23:19;;;;;;;4.88;2.80;;;22.90;74.20;;;;;;6185125;23;20004;-83
2023/06/16 04:25:44;;;;;;;3.97;2.72;;;22.90;73.90;;;;;;6184895;23;20085;-82
2023/06/16 04:28:13;;;;;;;3.47;2.67;;;22.90;73.90;;;;;;6185585;23;20036;-83
2023/06/16 04:30:42;;;;;;;3.50;2.10;;;22.90;74.40;;;;;;6184790;23;20001;-82
2023/06/16 04:33:08;;;;;;;3.83;2.55;;;22.90;73.70;;;;;;6185196;23;20351;-81
2023/06/16 04:35:34;;;;;;;3.10;2.75;;;22.90;73.60;;;;;;6185200;23;20025;-80
2023/06/16 04:38:01;;;;;;;3.30;2.60;;;22.90;73.40;;;;;;6185242;23;20052;-80
2023/06/16 04:40:27;;;;;;;3.00;2.47;;;22.90;73.20;;;;;;6183181;23;20420;-81
2023/06/16 04:42:53;;;;;;;2.65;2.10;;;22.90;73.40;;;;;;6183643;23;20001;-82
2023/06/16 04:45:20;;;;;;;3.60;2.67;;;22.90;73.50;;;;;;6183769;23;20313;-81
2023/06/16 04:47:46;;;;;;;3.30;2.55;;;22.90;73.30;;;;;;6185007;23;20000;-84
2023/06/16 04:50:13;;;;;;;3.17;2.20;;;22.90;73.60;;;;;;6188260;23;20071;-82
2023/06/16 04:52:39;;;;;;;3.13;2.45;;;22.90;73.20;;;;;;6187193;23;20009;-82
2023/06/16 04:55:06;;;;;;;3.45;2.15;;;22.90;73.00;;;;;;6186791;23;20008;-82
2023/06/16 04:57:33;;;;;;;4.82;2.78;;;23.00;73.00;;;;;;6185206;23;20428;-82
2023/06/16 05:00:00;;;;;;;3.58;2.40;;;23.00;72.90;;;;;;6183485;23;20012;-82
2023/06/16 05:02:26;;;;;;;2.88;2.55;;;23.00;72.70;;;;;;6184696;23;20088;-82
2023/06/16 05:04:52;;;;;;;2.78;2.30;;;23.10;72.50;;;;;;6185057;23;20002;-86
2023/06/16 05:07:18;;;;;;;4.38;2.67;;;23.00;72.10;;;;;;6184880;23;20023;-85
2023/06/16 05:09:45;;;;;;;4.13;2.53;;;23.00;71.30;;;;;;6182492;23;20021;-83
2023/06/16 05:12:11;;;;;;;2.85;1.85;;;23.00;71.80;;;;;;6184969;23;20028;-84
2023/06/16 05:14:37;;;;;;;3.90;2.40;;;23.00;71.80;;;;;;6184918;23;20001;-80
2023/06/16 05:17:03;;;;;;;3.60;2.53;;;23.00;71.80;;;;;;6185148;23;20010;-79
2023/06/16 05:19:30;;;;;;;3.53;2.05;;;23.00;71.70;;;;;;6184060;23;20002;-79
2023/06/16 05:21:55;;;;;;;2.60;1.80;;;23.10;71.50;;;;;;6184820;23;20001;-79
2023/06/16 05:24:21;;;;;;;2.95;2.40;;;23.10;71.00;;;;;;6184810;23;20412;-79
2023/06/16 05:26:46;;;;;;;3.10;2.22;;;23.10;70.70;;;;;;6184425;23;19997;-80
2023/06/16 05:29:12;;;;;;;2.67;2.22;;;23.20;70.50;;;;;;6184951;23;20001;-80
2023/06/16 05:31:38;;;;;;;3.38;2.45;;;23.20;70.30;;;;;;6183980;23;20005;-79
2023/06/16 05:34:03;;;;;;;2.42;1.80;;;23.20;69.80;;;;;;6181611;23;20037;-78
2023/06/16 05:36:31;;;;;;;4.22;2.15;;;23.20;69.60;;;;;;6182149;23;20017;-78
2023/06/16 05:38:56;;;;;;;2.72;1.85;;;23.30;69.80;;;;;;6186537;23;20009;-78
2023/06/16 05:41:23;;;;;;;1.88;1.52;;;23.30;69.90;;;;;;6186413;23;20076;-78
2023/06/16 05:43:51;;;;;;;3.17;2.00;;;23.40;69.90;;;;;;6186188;23;20371;-79
2023/06/16 05:46:16;;;;;;;3.60;2.05;;;23.50;69.60;;;;;;6186797;23;20019;-79
2023/06/16 05:48:42;;;;;;;2.08;1.80;;;23.50;68.90;;;;;;6186675;23;20001;-78
2023/06/16 05:51:08;;;;;;;2.85;2.03;;;23.50;68.90;;;;;;6186132;23;20008;-79
2023/06/16 05:53:34;;;;;;;2.65;2.10;;;23.60;68.70;;;;;;6186493;23;20001;-80
2023/06/16 05:55:59;;;;;;;2.92;1.90;;;23.70;68.50;;;;;;6186751;23;20432;-79
2023/06/16 05:58:25;;;;;;;4.85;1.90;;;23.70;68.20;;;;;;6186641;23;20416;-80
2023/06/16 06:00:51;;;;;;;2.83;2.20;;;23.70;67.70;;;;;;6185737;23;20001;-81
2023/06/16 06:03:16;;;;;;;2.22;1.80;;;23.70;68.30;;;;;;6184372;23;20013;-80
2023/06/16 06:05:42;;;;;;;4.47;2.35;;;23.80;68.30;;;;;;6185267;23;20005;-80
2023/06/16 06:08:08;;;;;;;2.75;2.45;;;23.80;67.70;;;;;;6186346;23;20069;-79
2023/06/16 06:10:33;;;;;;;3.40;2.25;;;23.80;67.50;;;;;;6185915;23;20426;-78
2023/06/16 06:13:03;;;;;;;2.80;2.30;;;23.90;67.50;;;;;;6183566;23;20005;-78
2023/06/16 06:15:29;;;;;;;3.13;1.97;;;23.90;67.30;;;;;;6185703;23;20039;-77
2023/06/16 06:17:54;;;;;;;8.25;2.53;;;23.90;67.30;;;;;;6185863;23;20696;-78
2023/06/16 06:20:20;;;;;;;3.00;2.45;;;23.90;67.40;;;;;;6185670;23;20049;-80
2023/06/16 06:22:46;;;;;;;3.17;2.28;;;23.90;67.60;;;;;;6186134;23;20001;-79
2023/06/16 06:25:13;;;;;;;3.70;2.10;;;23.90;67.80;;;;;;6185877;23;20001;-79
2023/06/16 06:27:39;;;;;;;2.50;1.95;;;23.90;68.00;;;;;;6185914;23;19997;-79
2023/06/16 06:30:06;;;;;;;3.95;2.08;;;23.90;68.50;;;;;;6185891;23;20028;-79
2023/06/16 06:32:32;;;;;;;2.95;1.90;;;24.00;69.10;;;;;;6186043;23;20408;-79
2023/06/16 06:34:58;;;;;;;10.85;2.78;;;24.10;69.10;;;;;;6159128;23;20029;-79
2023/06/16 06:37:30;;;;;;;3.38;2.60;;;24.00;68.80;;;;;;6186580;23;20001;-83
2023/06/16 06:39:56;;;;;;;4.68;2.00;;;24.00;67.90;;;;;;6186486;23;20005;-78
2023/06/16 06:42:22;;;;;;;2.95;1.98;;;24.10;67.90;;;;;;6159393;23;20036;-78
2023/06/16 06:44:48;;;;;;;2.05;1.60;;;24.10;67.40;;;;;;6186223;23;20001;-81
2023/06/16 06:47:14;;;;;;;3.75;2.47;;;24.10;67.50;;;;;;6185802;23;20121;-83
2023/06/16 06:49:44;;;;;;;2.20;2.00;;;24.20;67.20;;;;;;6187225;23;20064;-88
2023/06/16 06:52:09;;;;;;;2.15;1.92;;;24.20;67.30;;;;;;6158623;23;20005;-80
2023/06/16 06:54:35;;;;;;;2.78;2.00;;;24.30;66.80;;;;;;6185685;23;20035;-83
2023/06/16 06:57:01;;;;;;;3.15;2.03;;;24.30;66.70;;;;;;6185910;23;20001;-85
2023/06/16 06:59:26;;;;;;;2.90;2.38;;;24.40;66.60;;;;;;6185115;23;20005;-86
2023/06/16 07:01:52;;;;;;;2.90;2.25;;;24.50;66.50;;;;;;6185066;23;20005;-86
2023/06/16 07:04:18;;;;;;;3.70;2.05;;;24.50;65.10;;;;;;6186340;23;20004;-82
2023/06/16 07:06:44;;;;;;;5.05;1.98;;;24.50;64.70;;;;;;6184806;23;20424;-88
2023/06/16 07:09:10;;;;;;;3.30;2.25;;;24.60;65.30;;;;;;6186681;23;20395;-87
2023/06/16 07:14:12;;;;;;;3.38;1.85;;;24.60;64.60;;;;;;6181259;23;20063;-93
2023/06/16 07:16:38;;;;;;;2.05;1.85;;;24.70;65.10;;;;;;6196263;23;20011;-91
2023/06/16 07:19:03;;;;;;;3.08;2.03;;;24.80;65.10;;;;;;6206903;23;19989;-94
2023/06/16 07:21:29;;;;;;;2.45;1.90;;;24.90;65.00;;;;;;6208611;23;20025;-93
2023/06/16 07:23:55;;;;;;;2.72;2.13;;;24.90;64.60;;;;;;6203849;23;20055;-94
2023/06/16 07:26:20;;;;;;;2.90;1.83;;;25.00;63.60;;;;;;6196065;23;20040;-81
2023/06/16 07:28:46;;;;;;;2.92;1.88;;;25.00;63.00;;;;;;6182673;23;20023;-82
2023/06/16 07:31:12;;;;;;;6.97;2.65;;;25.00;62.80;;;;;;6182948;23;19997;-80
2023/06/16 07:33:37;;;;;;;2.40;1.70;;;25.10;62.00;;;;;;6184830;23;19997;-81
2023/06/16 07:36:03;;;;;;;3.25;2.05;;;25.10;62.00;;;;;;6183322;23;20005;-81
2023/06/16 07:38:29;;;;;;;2.05;1.73;;;25.10;62.20;;;;;;6184400;23;20072;-81
2023/06/16 07:40:54;;;;;;;2.88;1.90;;;25.10;62.30;;;;;;6185481;23;20005;-81
2023/06/16 07:43:21;;;;;;;2.85;2.20;;;25.20;63.00;;;;;;6185393;23;20012;-81
2023/06/16 07:45:47;;;;;;;4.55;1.77;;;25.30;62.90;;;;;;6185217;23;20005;-81
2023/06/16 07:48:14;;;;;;;3.42;2.20;;;25.40;62.50;;;;;;6184648;23;20485;-82
2023/06/16 07:50:40;;;;;;;2.78;2.10;;;25.40;61.90;;;;;;6183857;23;20005;-82
2023/06/16 07:53:06;;;;;;;2.20;1.75;;;25.50;61.80;;;;;;6185174;23;20008;-81
2023/06/16 07:55:32;;;;;;;2.70;1.70;;;25.50;61.90;;;;;;6184405;23;20009;-80
2023/06/16 07:57:57;;;;;;;2.90;1.90;;;25.60;61.90;;;;;;6184935;23;20080;-80
2023/06/16 08:00:23;;;;;;;1.73;1.63;;;25.60;61.80;;;;;;6182851;23;20013;-80
2023/06/16 08:02:50;;;;;;;2.53;1.80;;;25.70;61.90;;;;;;6185275;23;20002;-81
2023/06/16 08:05:18;;;;;;;4.35;1.90;;;25.70;61.50;;;;;;6183894;23;20057;-82
2023/06/16 08:07:44;;;;;;;2.45;1.90;;;25.80;61.70;;;;;;6182359;23;20005;-81
2023/06/16 08:10:10;;;;;;;1.95;1.75;;;25.90;61.60;;;;;;6184765;23;20354;-82
2023/06/16 08:12:37;;;;;;;2.50;1.80;;;25.90;61.40;;;;;;6183352;23;20135;-79
2023/06/16 08:15:03;;;;;;;2.88;1.92;;;26.00;61.80;;;;;;6184485;23;20004;-79
2023/06/16 08:17:30;;;;;;;2.47;1.60;;;26.00;61.10;;;;;;6184815;23;20431;-81
2023/06/16 08:19:56;;;;;;;1.75;1.60;;;26.10;60.80;;;;;;6185290;23;20005;-76
2023/06/16 08:22:21;;;;;;;3.25;2.10;;;26.10;61.10;;;;;;6183909;23;20379;-84
2023/06/16 08:24:47;;;;;;;2.58;1.98;;;26.20;60.90;;;;;;6184671;23;20084;-83
2023/06/16 08:27:14;;;;;;;2.47;1.77;;;26.20;60.80;;;;;;6183371;23;20013;-82
2023/06/16 08:29:39;;;;;;;1.80;1.70;;;26.30;60.70;;;;;;6181958;23;20009;-85
2023/06/16 08:32:06;;;;;;;2.55;1.80;;;26.30;60.30;;;;;;6184482;23;20058;-85
2023/06/16 08:34:33;;;;;;;3.13;1.92;;;26.30;60.30;;;;;;6182980;23;20029;-84
2023/06/16 08:37:01;;;;;;;2.08;1.88;;;26.40;60.20;;;;;;6183086;23;20450;-83
2023/06/16 08:39:27;;;;;;;2.65;2.13;;;26.40;60.40;;;;;;6185211;23;20001;-83
2023/06/16 08:41:53;;;;;;;2.97;2.17;;;26.50;60.90;;;;;;6185418;23;20073;-83
2023/06/16 08:44:21;;;;;;;2.83;1.75;;;26.60;61.00;;;;;;6183247;23;20063;-83
2023/06/16 08:46:47;;;;;;;4.85;1.80;;;26.70;60.70;;;;;;6185190;23;20005;-83
2023/06/16 08:49:15;;;;;;;2.53;2.15;;;26.70;59.40;;;;;;6185247;23;20005;-83
2023/06/16 08:51:50;;;;;;;2.25;1.75;;;26.80;59.50;;;;;;6184694;23;20001;-83
2023/06/16 08:54:19;;;;;;;2.33;1.73;;;26.80;59.50;;;;;;6184832;23;20008;-84
2023/06/16 08:56:48;;;;;;;2.08;1.83;;;26.90;59.90;;;;;;6184716;23;20001;-84
2023/06/16 08:59:17;;;;;;;2.80;2.23;;;26.90;60.10;;;;;;6183212;23;20070;-84
2023/06/16 09:01:42;;;;;;;4.65;2.40;;;27.00;59.90;;;;;;6182509;23;20060;-84
2023/06/16 09:04:09;;;;;;;4.32;2.50;;;27.10;60.20;;;;;;6182845;23;20005;-84
2023/06/16 09:06:36;;;;;;;2.70;2.20;;;27.10;60.40;;;;;;6184465;23;20004;-87
2023/06/16 09:09:03;;;;;;;2.92;2.05;;;27.20;60.60;;;;;;6182388;23;20018;-84
2023/06/16 09:11:30;;;;;;;4.40;2.25;;;27.30;61.40;;;;;;6184074;23;20001;-84
2023/06/16 09:13:56;;;;;;;3.22;2.17;;;27.40;60.10;;;;;;6185710;23;20000;-86
2023/06/16 09:16:23;;;;;;;2.70;2.20;;;27.40;60.20;;;;;;6185863;23;20001;-85
2023/06/16 09:18:49;;;;;;;2.13;1.92;;;27.40;59.80;;;;;;6185980;23;20039;-85
2023/06/16 09:21:25;;;;;;;2.80;2.00;;;27.50;60.30;;;;;;6185489;23;20005;-85
2023/06/16 09:23:57;;;;;;;2.35;2.00;;;27.50;59.50;;;;;;6184662;23;20025;-85
2023/06/16 09:26:30;;;;;;;5.28;2.58;;;27.60;60.40;;;;;;6184131;23;20017;-85
2023/06/16 09:28:56;;;;;;;2.78;2.30;;;27.60;59.20;;;;;;6186073;23;20001;-85
2023/06/16 09:31:28;;;;;;;3.40;2.25;;;27.70;59.60;;;;;;6181993;23;20734;-85
2023/06/16 09:34:05;;;;;;;6.55;2.35;;;27.80;58.60;;;;;;6181891;23;20016;-85
2023/06/16 09:36:30;;;;;;;6.38;2.25;;;27.80;57.80;;;;;;6185109;23;20005;-82
2023/06/16 09:38:56;;;;;;;4.22;2.10;;;27.90;57.60;;;;;;6184809;23;20423;-81
2023/06/16 09:41:22;;;;;;;3.70;2.40;;;27.90;57.20;;;;;;6185419;23;20005;-82
2023/06/16 09:43:48;;;;;;;6.72;2.33;;;28.00;56.90;;;;;;6186284;23;20001;-82
2023/06/16 09:46:14;;;;;;;11.07;2.47;;;28.00;56.10;;;;;;6185893;23;20409;-82
2023/06/16 09:48:48;;;;;;;4.90;2.67;;;28.10;55.10;;;;;;6185615;23;20589;-81
2023/06/16 09:51:21;;;;;;;11.07;3.08;;;28.20;54.30;;;;;;6186874;23;20497;-81
2023/06/16 09:53:48;;;;;;;2.30;1.95;;;28.20;55.40;;;;;;6186436;23;20562;-81
2023/06/16 09:56:17;;;;;;;4.68;2.40;;;28.20;56.40;;;;;;6186778;23;20028;-86
2023/06/16 09:58:45;;;;;;;5.30;2.78;;;28.30;56.00;;;;;;6183749;23;20009;-86
2023/06/16 10:01:13;;;;;;;6.43;2.90;;;28.40;55.60;;;;;;6185759;23;20005;-86
2023/06/16 10:03:43;;;;;;;3.47;2.45;;;28.50;55.90;;;;;;6185220;23;20005;-87
2023/06/16 10:06:20;;;;;;;6.72;2.38;;;28.60;56.00;;;;;;6187106;23;19998;-86
2023/06/16 10:08:48;;;;;;;3.15;2.38;;;28.70;56.20;;;;;;6185950;23;20007;-87
2023/06/16 10:11:19;;;;;;;3.63;2.08;;;28.70;55.80;;;;;;6183664;23;20008;-87
2023/06/16 10:13:53;;;;;;;3.65;2.35;;;28.80;55.50;;;;;;6182054;23;20013;-87
2023/06/16 10:16:25;;;;;;;4.15;2.15;;;28.90;56.30;;;;;;6186636;23;20012;-90
2023/06/16 10:18:53;;;;;;;4.30;2.10;;;29.00;55.60;;;;;;6187599;23;20001;-87
2023/06/16 10:21:19;;;;;;;3.20;2.22;;;29.00;55.60;;;;;;6188156;23;20023;-86
2023/06/16 10:23:45;;;;;;;4.30;2.30;;;29.10;54.50;;;;;;6186202;23;20398;-85
2023/06/16 10:26:12;;;;;;;5.70;2.75;;;29.20;54.20;;;;;;6185729;23;20020;-86
2023/06/16 10:28:39;;;;;;;9.80;2.17;;;29.30;54.30;;;;;;6183602;23;19997;-81
2023/06/16 10:31:05;;;;;;;7.53;2.50;;;29.30;52.40;;;;;;6189009;23;20005;-83
2023/06/16 10:33:54;;;;;;;3.15;1.83;;;29.40;53.50;;;;;;6181998;23;20384;-82
2023/06/16 10:36:27;;;;;;;5.50;2.03;;;29.40;51.80;;;;;;6184077;23;20015;-84
2023/06/16 10:39:01;;;;;;;4.50;1.90;;;29.60;52.30;;;;;;6185893;23;20005;-83
2023/06/16 10:41:31;;;;;;;1.83;1.60;;;29.60;51.60;;;;;;6185254;23;20033;-82
2023/06/16 10:44:16;;;;;;;;;;;29.70;51.90;;;;;;6184594;23;20028;-83
2023/06/16 10:46:42;;;;;;;3.55;2.20;;;29.80;51.20;;;;;;6182403;23;20318;-82
2023/06/16 10:49:10;;;;;;;1.83;1.73;;;29.80;51.10;;;;;;6185493;23;20089;-80
2023/06/16 10:51:44;;;;;;;1.95;1.70;;;29.90;50.40;;;;;;6184471;23;19997;-79
2023/06/16 10:54:10;;;;;;;6.68;2.17;;;30.00;51.20;;;;;;6183534;23;20005;-82
2023/06/16 10:57:04;;;;;;;2.75;2.00;;;30.10;50.90;;;;;;6183678;23;20323;-80
2023/06/16 10:59:50;;;;;;;3.25;2.50;;;30.30;50.60;;;;;;6185692;23;20131;-86
2023/06/16 11:02:37;;;;;;;5.20;2.30;;;30.30;48.60;;;;;;6183993;23;20108;-87
2023/06/16 11:05:10;;;;;;;3.45;2.33;;;30.30;49.90;;;;;;6187137;23;19997;-89
2023/06/16 11:07:57;;;;;;;3.40;1.83;;;30.40;50.20;;;;;;6185072;23;20005;-89
2023/06/16 11:10:24;;;;;;;5.10;1.80;;;30.60;50.80;;;;;;6160563;23;20009;-88
2023/06/16 11:12:50;;;;;;;1.63;1.35;;;30.70;50.60;;;;;;6186837;23;20036;-88
2023/06/16 11:15:16;;;;;;;4.25;1.92;;;30.80;50.20;;;;;;6185819;23;20424;-89
2023/06/16 11:17:47;;;;;;;3.17;1.75;;;31.00;49.80;;;;;;6185356;23;20486;-82
2023/06/16 11:20:13;;;;;;;2.20;1.83;;;31.10;48.30;;;;;;6184819;23;20009;-82
2023/06/16 11:22:39;;;;;;;3.90;1.98;;;31.30;49.50;;;;;;6184666;23;20059;-89
2023/06/16 11:25:05;;;;;;;3.75;2.22;;;31.50;49.70;;;;;;6182864;23;20467;-84
2023/06/16 11:27:32;;;;;;;11.15;1.98;;;31.80;48.20;;;;;;6185497;23;20012;-82
2023/06/16 11:30:00;;;;;;;9.13;2.47;;;32.00;46.90;;;;;;6184113;23;20005;-82
2023/06/16 11:32:28;;;;;;;5.55;2.63;;;32.20;47.00;;;;;;6183929;23;20005;-84
2023/06/16 11:34:58;;;;;;;5.25;2.15;;;32.60;46.30;;;;;;6183406;23;20572;-89
2023/06/16 11:37:45;;;;;;;3.22;1.73;;;32.90;46.60;;;;;;6185906;23;20427;-77
2023/06/16 11:40:11;;;;;;;3.65;2.10;;;33.40;45.40;;;;;;6185277;23;20001;-84
2023/06/16 11:42:37;;;;;;;3.05;1.77;;;33.70;46.00;;;;;;6183775;23;20032;-79
2023/06/16 11:45:03;;;;;;;5.90;2.10;;;34.20;45.20;;;;;;6185632;23;20327;-85
2023/06/16 11:47:29;;;;;;;3.85;1.90;;;34.60;44.20;;;;;;6185519;23;20000;-87
2023/06/16 11:49:55;;;;;;;12.63;2.10;;;34.80;43.90;;;;;;6184884;23;20008;-87
2023/06/16 11:52:22;;;;;;;6.60;1.90;;;35.20;42.90;;;;;;6186099;23;20001;-84
2023/06/16 11:54:49;;;;;;;2.28;2.08;;;35.40;42.70;;;;;;6184034;23;20028;-83
2023/06/16 11:57:45;;;;;;;3.78;1.98;;;35.60;41.80;;;;;;6157500;23;20343;-86
2023/06/16 12:00:18;;;;;;;6.18;1.95;;;35.70;42.20;;;;;;6141742;23;20005;-82
2023/06/16 12:02:50;;;;;;;3.15;1.80;;;35.90;42.70;;;;;;6156809;23;20076;-86
2023/06/16 12:05:27;;;;;;;1.85;1.63;;;36.00;42.20;;;;;;6130187;23;20006;-86
2023/06/16 12:07:52;;;;;;;5.10;2.15;;;36.20;41.80;;;;;;6155819;23;20001;-85
2023/06/16 12:10:18;;;;;;;3.60;1.85;;;36.10;40.90;;;;;;6155960;23;20016;-86
2023/06/16 12:12:47;;;;;;;3.50;1.98;;;36.20;42.00;;;;;;6128147;23;20040;-83
2023/06/16 12:15:17;;;;;;;5.03;2.15;;;36.30;41.30;;;;;;6128978;23;20427;-82
2023/06/16 12:17:43;;;;;;;7.03;2.20;;;36.40;41.30;;;;;;6129812;23;20333;-89
2023/06/16 12:20:12;;;;;;;5.78;2.08;;;36.50;41.30;;;;;;6156715;23;20009;-87
2023/06/16 12:22:38;;;;;;;3.15;2.08;;;36.60;39.80;;;;;;6131611;23;20006;-84
2023/06/16 12:25:16;;;;;;;5.38;2.50;;;36.60;40.40;;;;;;6158776;23;20002;-90
2023/06/16 12:27:52;;;;;;;8.45;2.50;;;36.60;41.20;;;;;;6156270;23;20532;-85
2023/06/16 12:30:18;;;;;;;13.93;2.30;;;36.60;41.70;;;;;;6155257;23;20017;-82
2023/06/16 12:32:45;;;;;;;4.70;2.10;;;36.80;41.40;;;;;;6156968;23;20002;-87
2023/06/16 12:35:11;;;;;;;2.45;1.92;;;37.00;41.40;;;;;;6154439;23;20424;-85
2023/06/16 12:37:40;;;;;;;3.90;2.03;;;37.10;41.40;;;;;;6156104;23;20059;-84
2023/06/16 12:40:10;;;;;;;3.30;1.77;;;37.20;40.40;;;;;;6154499;23;20002;-86
2023/06/16 12:42:36;;;;;;;3.15;2.35;;;37.30;41.00;;;;;;6129005;23;20010;-84
2023/06/16 12:45:05;;;;;;;3.35;2.13;;;37.40;40.50;;;;;;6129277;23;20027;-85
2023/06/16 12:47:33;;;;;;;4.23;2.30;;;37.40;40.40;;;;;;6155376;23;20056;-85
2023/06/16 12:50:00;;;;;;;3.75;2.42;;;37.40;40.30;;;;;;6153884;23;20326;-82
2023/06/16 12:52:28;;;;;;;5.20;2.40;;;37.40;39.80;;;;;;6155143;23;20009;-83
2023/06/16 12:54:55;;;;;;;4.03;2.10;;;37.40;40.40;;;;;;6159036;23;20002;-84